Dubai, UAE

9:11 AM GST on October 26, 2014 (GMT +0400)
Abu Hail Metro Station | Change Station
CLOSE
Current Station
Personal Weather Station
Location: Dubai, DUBAI
Elevation: -7 ft
Nearby Weather Stations

Elev -7 ft 25.27 °N, 55.35 °E | Updated 5 minutes ago

Clear
Clear
88.2 °F
Feels Like 92 °F
N
0.0
Wind Variable Wind from NNW
Gusts 1.0 mph

Today
High -- | Low -- °F
--% Chance of Precip.
Yesterday
High -- | Low -- °F
Precip. -- in
6:22 AM 5:42 PM
Waxing Crescent, 6% visible
Pressure 29.95 in
Visibility -9999.0 miles
Clouds
Heat Index 92 °F
Dew Point 68 °F
Humidity 52%
Rainfall 0.00 in
Snow Depth Not available.
UV Not available.
Pollen Not available.
Air Quality Not available.
Flu Activity Not available.
METAR OMDB 260500Z VRB03KT CAVOK 30/23 Q1014 NOSIG

More Conditions Fewer Conditions

Pressure 29.95 in
Visibility -9999.0 miles
Clouds
Heat Index 92 °F
Dew Point 68 °F
Humidity 52%
Rainfall 0.00 in
Snow Depth Not available.
UV Not available.
Pollen Not available.
Air Quality Not available.
Flu Activity Not available.
METAR OMDB 260500Z VRB03KT CAVOK 30/23 Q1014 NOSIG

More Conditions Fewer Conditions

10-Day Weather Forecast

Almanac

Astronomy

Oct. 26, 2014 Rise Set
Actual Time 6:22 AM GST 5:42 PM GST
Civil Twilight 5:59 AM GST 6:05 PM GST
Nautical Twilight 5:32 AM GST 6:32 PM GST
Astronomical Twilight 5:05 AM GST 6:59 PM GST
Moon 8:27 AM GST 7:43 PM GST
Length of Visible Light 12h 06m
Length of Day
11h 19m
Tomorrow will be 1m 20s shorter.
Waxing Crescent, 6% of the Moon is Illuminated
Today
Waxing Crescent
Oct 30
First Quarter
Nov 6
Full
Nov 14
Last Quarter
Nov 22
New

Yesterday's Extremes

Country Highs Country Lows

Community

WunderPhotos

Upload Photos

1,765,111 photos uploaded!

Nearby

Snow Depth

Not available.

Earthquake Activity

City Distance Mag. Time & Date
No recent earthquake activity has been reported nearby.
Minimum magnitude displayed is 2.5.

Coastal Water Temperatures

Place Temperature
No Stations Reporting

Nearby Weather Stations